createdAt,value
2022-07-25T00:00:44.974Z,99806.94
2022-07-25T00:03:19.035Z,99808.84
2022-07-25T00:05:50.498Z,99814.50
2022-07-25T00:08:20.603Z,99800.50
2022-07-25T00:10:50.834Z,99801.56
2022-07-25T00:13:20.978Z,99806.19
2022-07-25T00:15:52.068Z,99812.94
2022-07-25T00:18:22.969Z,99814.84
2022-07-25T00:20:54.687Z,99820.53
2022-07-25T00:23:25.935Z,99821.38
2022-07-25T00:26:00.273Z,99818.41
2022-07-25T00:28:37.399Z,99813.56
2022-07-25T00:31:11.327Z,99815.16
2022-07-25T00:33:41.700Z,99819.78
2022-07-25T00:36:13.434Z,99818.19
2022-07-25T00:38:43.770Z,99813.31
2022-07-25T00:41:14.217Z,99816.00
2022-07-25T00:43:48.543Z,99826.53
2022-07-25T00:46:19.524Z,99830.88
2022-07-25T00:48:50.987Z,99823.03
2022-07-25T00:51:21.191Z,99820.84
2022-07-25T00:53:52.085Z,99823.53
2022-07-25T00:56:22.909Z,99817.31
2022-07-25T00:58:53.206Z,99822.72
2022-07-25T01:01:23.419Z,99823.75
2022-07-25T01:03:53.515Z,99819.66
2022-07-25T01:06:24.815Z,99833.13
2022-07-25T01:08:56.076Z,99827.38
2022-07-25T01:11:26.635Z,99823.28
2022-07-25T01:13:56.964Z,99819.16
2022-07-25T01:16:27.281Z,99819.91
2022-07-25T01:18:57.372Z,99827.16
2022-07-25T01:21:28.755Z,99822.81
2022-07-25T01:23:58.822Z,99823.28
2022-07-25T01:26:29.299Z,99827.84
2022-07-25T01:28:59.680Z,99829.47
2022-07-25T01:31:30.110Z,99822.19
2022-07-25T01:34:00.433Z,99828.69
2022-07-25T01:36:30.877Z,99830.00
2022-07-25T01:39:02.209Z,99841.63
2022-07-25T01:41:32.389Z,99836.72
2022-07-25T01:44:02.747Z,99842.09
2022-07-25T01:46:33.306Z,99834.75
2022-07-25T01:49:03.563Z,99849.59
2022-07-25T01:51:34.294Z,99840.31
2022-07-25T01:54:09.032Z,99844.59
2022-07-25T01:56:46.999Z,99848.31
2022-07-25T01:59:18.933Z,99849.38
2022-07-25T02:01:49.299Z,99847.94
2022-07-25T02:04:19.362Z,99846.00
2022-07-25T02:06:49.436Z,99856.34
2022-07-25T02:09:19.476Z,99859.06
2022-07-25T02:11:49.533Z,99856.91
2022-07-25T02:14:19.744Z,99861.03
2022-07-25T02:16:49.838Z,99861.81
2022-07-25T02:19:20.197Z,99871.53
2022-07-25T02:21:50.799Z,99869.34
2022-07-25T02:24:20.895Z,99869.28
2022-07-25T02:26:50.887Z,99870.28
2022-07-25T02:29:21.897Z,99860.69
2022-07-25T02:31:54.371Z,99869.00
2022-07-25T02:34:24.509Z,99864.03
2022-07-25T02:36:54.483Z,99863.69
2022-07-25T02:39:24.574Z,99868.53
2022-07-25T02:41:54.724Z,99865.53
2022-07-25T02:44:24.806Z,99861.72
2022-07-25T02:46:54.796Z,99857.84
2022-07-25T02:49:24.764Z,99858.63
2022-07-25T02:51:54.744Z,99849.84
2022-07-25T02:54:24.960Z,99857.91
2022-07-25T02:56:55.605Z,99859.53
2022-07-25T02:59:25.707Z,99851.38
2022-07-25T03:02:02.325Z,99850.22
2022-07-25T03:04:32.525Z,99850.72
2022-07-25T03:07:02.669Z,99849.84
2022-07-25T03:09:32.647Z,99854.69
2022-07-25T03:12:03.368Z,99856.31
2022-07-25T03:14:33.375Z,99855.72
2022-07-25T03:17:02.827Z,99852.13
2022-07-25T03:19:33.116Z,99862.13
2022-07-25T03:22:03.609Z,99852.25
2022-07-25T03:24:34.735Z,99860.34
2022-07-25T03:27:04.841Z,99864.13
2022-07-25T03:29:35.156Z,99867.38
2022-07-25T03:32:05.781Z,99862.16
2022-07-25T03:34:36.695Z,99855.00
2022-07-25T03:37:07.182Z,99857.22
2022-07-25T03:39:37.533Z,99850.16
2022-07-25T03:42:08.033Z,99851.28
2022-07-25T03:44:39.260Z,99856.50
2022-07-25T03:47:09.636Z,99850.44
2022-07-25T03:49:51.104Z,99844.94
2022-07-25T03:52:21.271Z,99849.78
2022-07-25T03:54:51.462Z,99851.41
2022-07-25T03:57:21.536Z,99851.13
2022-07-25T03:59:51.983Z,99843.69
2022-07-25T04:02:23.294Z,99836.53
2022-07-25T04:04:53.788Z,99834.31
2022-07-25T04:07:24.422Z,99824.56
2022-07-25T04:09:55.141Z,99823.66
2022-07-25T04:12:25.870Z,99824.47
2022-07-25T04:14:56.173Z,99826.06
2022-07-25T04:17:27.174Z,99824.19
2022-07-25T04:20:01.494Z,99823.84
2022-07-25T04:22:32.292Z,99821.97
2022-07-25T04:25:03.097Z,99823.28
2022-07-25T04:27:34.653Z,99818.84
2022-07-25T04:30:05.474Z,99814.22
2022-07-25T04:32:36.162Z,99812.81
2022-07-25T04:35:07.162Z,99811.72
2022-07-25T04:37:38.866Z,99807.38
2022-07-25T04:40:10.467Z,99805.78
2022-07-25T04:42:41.376Z,99802.44
2022-07-25T04:45:17.548Z,99800.75
2022-07-25T04:47:48.931Z,99797.94
2022-07-25T04:50:24.538Z,99795.41
2022-07-25T04:52:55.969Z,99805.41
2022-07-25T04:55:26.420Z,99803.22
2022-07-25T04:57:56.674Z,99797.53
2022-07-25T05:00:26.883Z,99804.81
2022-07-25T05:02:57.143Z,99798.56
2022-07-25T05:05:28.278Z,99793.94
2022-07-25T05:08:01.014Z,99795.56
2022-07-25T05:10:32.544Z,99793.13
2022-07-25T05:13:03.184Z,99789.63
2022-07-25T05:15:33.679Z,99791.22
2022-07-25T05:18:04.190Z,99797.78
2022-07-25T05:20:34.840Z,99795.56
2022-07-25T05:23:04.939Z,99797.97
2022-07-25T05:25:35.438Z,99802.09
2022-07-25T05:28:05.603Z,99793.94
2022-07-25T05:30:39.719Z,99784.19
2022-07-25T05:33:10.798Z,99784.69
2022-07-25T05:35:40.847Z,99783.84
2022-07-25T05:38:10.974Z,99787.91
2022-07-25T05:40:41.288Z,99778.59
2022-07-25T05:43:11.527Z,99781.22
2022-07-25T05:45:41.609Z,99787.22
2022-07-25T05:48:11.840Z,99786.88
2022-07-25T05:50:42.674Z,99788.50
2022-07-25T05:53:13.714Z,99782.75
2022-07-25T05:55:44.417Z,99784.69
2022-07-25T05:58:15.143Z,99785.47
2022-07-25T06:00:51.041Z,99778.41
2022-07-25T06:03:21.986Z,99780.34
2022-07-25T06:05:52.354Z,99778.22
2022-07-25T06:08:22.684Z,99773.59
2022-07-25T06:10:53.292Z,99780.63
2022-07-25T06:13:24.418Z,99772.75
2022-07-25T06:15:55.945Z,99768.44
2022-07-25T06:18:27.575Z,99768.75
2022-07-25T06:20:57.884Z,99770.97
2022-07-25T06:23:28.257Z,99768.03
2022-07-25T06:25:58.970Z,99765.13
2022-07-25T06:28:30.384Z,99754.72
2022-07-25T06:31:04.424Z,99758.25
2022-07-25T06:33:35.447Z,99756.63
2022-07-25T06:36:08.100Z,99755.03
2022-07-25T06:38:39.197Z,99756.97
2022-07-25T06:41:16.704Z,99754.84
2022-07-25T06:43:50.292Z,99753.22
2022-07-25T06:46:25.137Z,99744.00
2022-07-25T06:48:55.958Z,99748.31
2022-07-25T06:51:27.132Z,99745.94
2022-07-25T06:53:58.285Z,99751.69
2022-07-25T06:56:32.714Z,99744.91
2022-07-25T06:59:03.056Z,99739.25
2022-07-25T07:01:33.582Z,99740.69
2022-07-25T07:04:06.950Z,99727.38
2022-07-25T07:06:41.242Z,99722.72
2022-07-25T07:09:14.542Z,99721.94
2022-07-25T07:11:48.172Z,99723.53
2022-07-25T07:14:19.162Z,99717.00
2022-07-25T07:16:50.081Z,99725.66
2022-07-25T07:19:21.077Z,99722.03
2022-07-25T07:21:52.742Z,99717.91
2022-07-25T07:24:24.839Z,99709.16
2022-07-25T07:26:56.942Z,99706.94
2022-07-25T07:29:27.197Z,99697.59
2022-07-25T07:31:57.390Z,99689.31
2022-07-25T07:34:26.911Z,99691.94
2022-07-25T07:36:57.080Z,99687.19
2022-07-25T07:39:27.040Z,99681.31
2022-07-25T07:41:57.992Z,99673.34
2022-07-25T07:44:28.637Z,99679.28
2022-07-25T07:47:03.094Z,99660.72
2022-07-25T07:49:36.943Z,99665.88
2022-07-25T07:52:08.497Z,99668.47
2022-07-25T07:54:59.409Z,99669.16
2022-07-25T07:57:30.770Z,99666.25
2022-07-25T08:00:01.568Z,99662.59
2022-07-25T08:02:50.544Z,99660.88
2022-07-25T08:05:29.152Z,99659.94
2022-07-25T08:08:17.760Z,99660.75
2022-07-25T08:10:48.584Z,99659.13
2022-07-25T08:13:24.422Z,99668.63
2022-07-25T08:16:01.200Z,99662.84
2022-07-25T08:18:35.312Z,99664.47
2022-07-25T08:21:10.327Z,99662.03
2022-07-25T08:23:43.818Z,99654.66
2022-07-25T08:26:15.506Z,99656.28
2022-07-25T08:28:59.845Z,99662.53
2022-07-25T08:31:39.222Z,99664.47
2022-07-25T08:34:09.769Z,99656.09
2022-07-25T08:36:41.314Z,99656.41
2022-07-25T08:39:11.593Z,99665.19
2022-07-25T08:41:43.481Z,99665.00
2022-07-25T08:44:16.083Z,99663.41
2022-07-25T08:46:47.594Z,99667.03
2022-07-25T08:49:19.205Z,99667.03
2022-07-25T08:51:54.929Z,99663.09
2022-07-25T08:54:29.768Z,99662.78
2022-07-25T08:57:00.890Z,99657.66
2022-07-25T08:59:34.119Z,99666.50
2022-07-25T09:02:08.463Z,99655.91
2022-07-25T09:04:39.811Z,99650.47
2022-07-25T09:07:10.426Z,99649.34
2022-07-25T09:09:42.310Z,99649.03
2022-07-25T09:12:13.124Z,99652.88
2022-07-25T09:14:46.417Z,99655.91
2022-07-25T09:17:22.405Z,99659.75
2022-07-25T09:19:59.119Z,99658.63
2022-07-25T09:22:29.537Z,99646.13
2022-07-25T09:24:59.566Z,99650.47
2022-07-25T09:27:35.871Z,99660.75
2022-07-25T09:30:15.924Z,99663.78
2022-07-25T09:32:46.686Z,99660.56
2022-07-25T09:35:17.623Z,99663.91
2022-07-25T09:37:47.650Z,99670.75
2022-07-25T09:40:17.846Z,99664.81
2022-07-25T09:42:53.740Z,99656.72
2022-07-25T09:45:26.072Z,99654.88
2022-07-25T09:48:02.588Z,99670.88
2022-07-25T09:50:35.401Z,99675.53
2022-07-25T09:53:05.459Z,99672.56
2022-07-25T09:55:35.785Z,99679.16
2022-07-25T09:58:05.981Z,99668.88
2022-07-25T10:00:37.142Z,99669.97
2022-07-25T10:03:24.827Z,99668.69
2022-07-25T10:06:22.842Z,99666.25
2022-07-25T10:08:54.017Z,99678.25
2022-07-25T10:11:29.289Z,99679.38
2022-07-25T10:13:59.457Z,99671.81
2022-07-25T10:16:30.012Z,99685.22
2022-07-25T10:19:01.208Z,99680.59
2022-07-25T10:21:31.604Z,99688.06
2022-07-25T10:24:02.265Z,99691.09
2022-07-25T10:26:34.980Z,99697.13
2022-07-25T10:35:31.797Z,99711.59
2022-07-25T10:38:05.943Z,99704.81
2022-07-25T10:40:42.172Z,99705.75
2022-07-25T10:43:17.648Z,99715.31
2022-07-25T10:45:56.320Z,99711.88
2022-07-25T10:48:34.761Z,99709.72
2022-07-25T10:51:06.802Z,99706.50
2022-07-25T10:53:43.714Z,99704.69
2022-07-25T10:56:29.389Z,99708.34
2022-07-25T10:59:02.943Z,99700.75
2022-07-25T11:01:39.554Z,99702.19
2022-07-25T11:04:18.396Z,99707.09
2022-07-25T11:06:50.163Z,99709.94
2022-07-25T11:09:27.614Z,99706.41
2022-07-25T11:12:00.694Z,99709.41
2022-07-25T11:14:44.245Z,99715.16
2022-07-25T11:17:15.851Z,99717.38
2022-07-25T11:20:07.296Z,99711.44
2022-07-25T11:22:37.938Z,99709.84
2022-07-25T11:25:15.748Z,99712.03
2022-07-25T11:27:46.285Z,99707.19
2022-07-25T11:30:19.199Z,99704.78
2022-07-25T11:32:53.309Z,99696.13
2022-07-25T11:35:27.732Z,99707.28
2022-07-25T11:37:58.282Z,99706.47
2022-07-25T11:40:28.603Z,99718.75
2022-07-25T11:43:03.150Z,99714.41
2022-07-25T11:45:35.521Z,99713.13
2022-07-25T11:48:14.798Z,99717.75
2022-07-25T11:50:46.574Z,99706.66
2022-07-25T11:53:19.915Z,99707.75
2022-07-25T11:55:50.106Z,99698.28
2022-07-25T11:58:20.713Z,99695.84
2022-07-25T12:00:51.724Z,99699.66
2022-07-25T12:03:22.750Z,99705.41
2022-07-25T12:05:53.461Z,99700.53
2022-07-25T12:08:25.293Z,99703.25
2022-07-25T12:10:56.963Z,99702.75
2022-07-25T12:13:29.813Z,99708.50
2022-07-25T12:16:01.361Z,99712.63
2022-07-25T12:18:31.545Z,99722.19
2022-07-25T12:21:01.626Z,99739.09
2022-07-25T12:23:32.023Z,99737.75
2022-07-25T12:26:05.119Z,99735.66
2022-07-25T12:28:35.850Z,99734.31
2022-07-25T12:31:05.891Z,99732.41
2022-07-25T12:33:36.556Z,99734.59
2022-07-25T12:36:08.542Z,99731.88
2022-07-25T12:38:39.852Z,99743.06
2022-07-25T12:41:17.696Z,99751.50
2022-07-25T12:44:12.361Z,99752.41
2022-07-25T12:46:49.088Z,99760.25
2022-07-25T12:49:20.415Z,99762.16
2022-07-25T12:51:53.499Z,99774.44
2022-07-25T12:54:28.518Z,99776.63
2022-07-25T12:57:00.230Z,99781.56
2022-07-25T12:59:31.950Z,99785.38
2022-07-25T13:02:02.919Z,99786.44
2022-07-25T13:04:34.284Z,99790.59
2022-07-25T13:07:05.792Z,99801.72
2022-07-25T13:09:36.623Z,99807.75
2022-07-25T13:12:07.129Z,99815.91
2022-07-25T13:14:38.156Z,99811.59
2022-07-25T13:17:11.483Z,99809.94
2022-07-25T13:19:42.456Z,99803.72
2022-07-25T13:22:12.619Z,99806.44
2022-07-25T13:24:42.887Z,99801.81
2022-07-25T13:27:13.282Z,99795.84
2022-07-25T13:29:44.465Z,99803.50
2022-07-25T13:32:16.307Z,99813.25
2022-07-25T13:34:47.317Z,99809.22
2022-07-25T13:37:17.766Z,99819.78
2022-07-25T13:39:48.170Z,99818.16
2022-07-25T13:42:19.654Z,99807.88
2022-07-25T13:44:51.050Z,99807.88
2022-07-25T13:47:25.661Z,99810.88
2022-07-25T13:50:03.541Z,99811.75
2022-07-25T13:52:34.987Z,99817.47
2022-07-25T13:55:06.671Z,99822.09
2022-07-25T13:57:38.944Z,99827.31
2022-07-25T14:00:14.136Z,99825.66
2022-07-25T14:02:45.633Z,99827.06
2022-07-25T14:05:16.291Z,99821.66
2022-07-25T14:07:47.403Z,99826.56
2022-07-25T14:10:18.585Z,99827.13
2022-07-25T14:12:49.197Z,99816.84
2022-07-25T14:15:20.029Z,99829.09
2022-07-25T14:17:51.245Z,99829.97
2022-07-25T14:20:22.590Z,99836.78
2022-07-25T14:22:53.900Z,99843.06
2022-07-25T14:25:24.981Z,99845.28
2022-07-25T14:28:00.119Z,99848.56
2022-07-25T14:30:31.058Z,99849.66
2022-07-25T14:33:02.224Z,99845.59
2022-07-25T14:35:33.325Z,99841.56
2022-07-25T14:38:07.829Z,99847.56
2022-07-25T14:40:39.200Z,99841.63
2022-07-25T14:43:10.118Z,99845.44
2022-07-25T14:45:43.400Z,99847.06
2022-07-25T14:48:14.440Z,99845.44
2022-07-25T14:50:45.936Z,99838.38
2022-07-25T14:53:17.837Z,99838.38
2022-07-25T14:55:50.902Z,99814.78
2022-07-25T14:58:22.419Z,99827.50
2022-07-25T15:00:56.442Z,99824.28
2022-07-25T15:03:28.120Z,99823.47
2022-07-25T15:06:02.420Z,99812.13
2022-07-25T15:08:33.495Z,99806.94
2022-07-25T15:11:05.425Z,99795.56
2022-07-25T15:13:37.016Z,99791.50
2022-07-25T15:16:08.229Z,99778.84
2022-07-25T15:19:05.364Z,99778.00
2022-07-25T15:21:31.389Z,99782.91
2022-07-25T15:24:02.193Z,99788.91
2022-07-25T15:26:34.915Z,99782.97
2022-07-25T15:29:08.575Z,99779.72
2022-07-25T15:31:40.195Z,99793.56
2022-07-25T15:34:11.096Z,99782.78
2022-07-25T15:36:42.833Z,99786.09
2022-07-25T15:39:12.851Z,99785.53
2022-07-25T15:41:43.685Z,99785.31
2022-07-25T15:44:17.224Z,99785.59
2022-07-25T15:46:47.934Z,99793.19
2022-07-25T15:49:24.086Z,99787.00
2022-07-25T15:51:54.909Z,99782.44
2022-07-25T15:54:29.385Z,99788.97
2022-07-25T15:57:00.736Z,99789.53
2022-07-25T15:59:32.205Z,99781.69
2022-07-25T16:02:02.896Z,99765.69
2022-07-25T16:04:33.459Z,99766.81
2022-07-25T16:07:04.167Z,99763.56
2022-07-25T16:09:34.845Z,99757.31
2022-07-25T16:12:07.992Z,99752.50
2022-07-25T16:14:38.531Z,99744.63
2022-07-25T16:17:09.655Z,99753.31
2022-07-25T16:19:43.265Z,99761.44
2022-07-25T16:22:15.755Z,99748.16
2022-07-25T16:24:47.486Z,99750.34
2022-07-25T16:27:18.087Z,99753.34
2022-07-25T16:29:48.836Z,99762.56
2022-07-25T16:32:29.479Z,99752.81
2022-07-25T16:34:59.795Z,99757.72
2022-07-25T16:37:29.993Z,99761.50
2022-07-25T16:40:03.483Z,99765.34
2022-07-25T16:42:33.735Z,99770.44
2022-07-25T16:45:04.005Z,99763.72
2022-07-25T16:47:34.209Z,99766.41
2022-07-25T16:50:04.387Z,99754.50
2022-07-25T16:52:34.570Z,99752.59
2022-07-25T16:55:04.767Z,99749.34
2022-07-25T16:57:34.955Z,99744.22
2022-07-25T17:00:07.606Z,99743.09
2022-07-25T17:02:37.893Z,99748.81
2022-07-25T17:05:08.566Z,99742.06
2022-07-25T17:07:41.202Z,99737.44
2022-07-25T17:10:11.665Z,99746.69
2022-07-25T17:12:41.733Z,99748.03
2022-07-25T17:15:13.176Z,99757.81
2022-07-25T17:17:44.224Z,99746.97
2022-07-25T17:20:14.519Z,99764.03
2022-07-25T17:22:45.058Z,99752.38
2022-07-25T17:25:15.233Z,99746.97
2022-07-25T17:27:45.642Z,99743.72
2022-07-25T17:30:15.701Z,99730.19
2022-07-25T17:32:45.750Z,99732.38
2022-07-25T17:35:15.865Z,99729.66
2022-07-25T17:37:46.103Z,99717.19
2022-07-25T17:40:16.349Z,99717.47
2022-07-25T17:42:48.647Z,99722.38
2022-07-25T17:45:19.171Z,99724.28
2022-07-25T17:47:49.142Z,99722.94
2022-07-25T17:50:19.222Z,99728.63
2022-07-25T17:52:49.160Z,99729.50
2022-07-25T17:55:20.043Z,99738.41
2022-07-25T17:57:54.372Z,99751.44
2022-07-25T18:00:25.658Z,99751.19
2022-07-25T18:02:56.290Z,99763.38
2022-07-25T18:05:26.910Z,99760.69
2022-07-25T18:07:57.289Z,99759.88
2022-07-25T18:10:27.362Z,99767.22
2022-07-25T18:12:57.544Z,99766.66
2022-07-25T18:15:28.531Z,99777.78
2022-07-25T18:17:59.165Z,99781.34
2022-07-25T18:20:29.588Z,99795.41
2022-07-25T18:23:00.040Z,99790.56
2022-07-25T18:25:30.267Z,99803.28
2022-07-25T18:28:00.480Z,99801.44
2022-07-25T18:30:30.773Z,99794.69
2022-07-25T18:33:00.761Z,99805.53
2022-07-25T18:35:30.907Z,99789.88
2022-07-25T18:38:01.678Z,99783.63
2022-07-25T18:40:32.041Z,99786.34
2022-07-25T18:43:04.053Z,99786.91
2022-07-25T18:45:39.749Z,99780.38
2022-07-25T18:48:10.565Z,99788.50
2022-07-25T18:50:40.614Z,99799.34
2022-07-25T18:53:11.721Z,99805.03
2022-07-25T18:55:43.521Z,99804.50
2022-07-25T18:58:17.278Z,99810.19
2022-07-25T19:00:47.551Z,99810.72
2022-07-25T19:03:17.908Z,99819.41
2022-07-25T19:05:48.216Z,99819.69
2022-07-25T19:08:18.535Z,99831.06
2022-07-25T19:10:49.479Z,99827.84
2022-07-25T19:13:46.791Z,99838.13
2022-07-25T19:16:13.067Z,99842.75
2022-07-25T19:18:43.472Z,99851.13
2022-07-25T19:21:13.559Z,99859.50
2022-07-25T19:23:49.727Z,99857.34
2022-07-25T19:26:22.314Z,99858.16
2022-07-25T19:28:53.296Z,99855.19
2022-07-25T19:31:23.916Z,99852.72
2022-07-25T19:33:54.349Z,99858.13
2022-07-25T19:36:24.405Z,99851.38
2022-07-25T19:38:54.557Z,99844.06
2022-07-25T19:41:24.676Z,99846.25
2022-07-25T19:43:55.659Z,99842.22
2022-07-25T19:46:30.770Z,99859.78
2022-07-25T19:49:06.696Z,99844.09
2022-07-25T19:51:37.172Z,99849.50
2022-07-25T19:54:10.460Z,99834.38
2022-07-25T19:56:41.076Z,99841.69
2022-07-25T19:59:12.010Z,99837.59
2022-07-25T20:01:42.386Z,99837.34
2022-07-25T20:04:13.773Z,99831.66
2022-07-25T20:06:44.501Z,99837.06
2022-07-25T20:09:15.610Z,99838.16
2022-07-25T20:11:46.694Z,99836.00
2022-07-25T20:14:17.081Z,99830.34
2022-07-25T20:16:47.647Z,99819.25
2022-07-25T20:19:17.740Z,99826.00
2022-07-25T20:21:47.973Z,99822.22
2022-07-25T20:24:21.516Z,99817.88
2022-07-25T20:26:52.841Z,99814.09
2022-07-25T20:29:25.690Z,99800.59
2022-07-25T20:31:55.348Z,99801.66
2022-07-25T20:34:25.425Z,99796.78
2022-07-25T20:36:55.541Z,99804.09
2022-07-25T20:39:28.845Z,99810.31
2022-07-25T20:41:59.044Z,99809.78
2022-07-25T20:44:29.187Z,99810.59
2022-07-25T20:46:58.571Z,99809.50
2022-07-25T20:49:28.620Z,99804.09
2022-07-25T20:51:58.698Z,99800.88
2022-07-25T20:54:28.840Z,99816.00
2022-07-25T20:56:58.957Z,99824.13
2022-07-25T20:59:29.196Z,99816.00
2022-07-25T21:01:59.909Z,99807.91
2022-07-25T21:04:30.116Z,99812.47
2022-07-25T21:07:00.133Z,99806.28
2022-07-25T21:09:32.686Z,99807.34
2022-07-25T21:12:03.784Z,99791.38
2022-07-25T21:14:33.758Z,99806.00
2022-07-25T21:17:03.906Z,99821.16
2022-07-25T21:19:34.238Z,99831.41
2022-07-25T21:22:05.221Z,99822.75
2022-07-25T21:24:35.347Z,99820.59
2022-07-25T21:27:05.751Z,99821.41
2022-07-25T21:29:35.849Z,99807.91
2022-07-25T21:32:06.335Z,99807.59
2022-07-25T21:34:36.780Z,99800.59
2022-07-25T21:37:07.376Z,99806.00
2022-07-25T21:39:37.810Z,99812.47
2022-07-25T21:42:11.453Z,99807.34
2022-07-25T21:44:42.902Z,99807.06
2022-07-25T21:47:14.900Z,99809.50
2022-07-25T21:50:03.883Z,99801.41
2022-07-25T21:52:35.205Z,99809.78
2022-07-25T21:55:06.878Z,99804.91
2022-07-25T21:57:36.907Z,99805.44
2022-07-25T22:00:11.599Z,99803.81
2022-07-25T22:02:45.879Z,99798.94
2022-07-25T22:05:18.688Z,99805.69
2022-07-25T22:07:50.220Z,99807.06
2022-07-25T22:10:22.017Z,99821.38
2022-07-25T22:12:52.176Z,99825.44
2022-07-25T22:15:22.269Z,99830.84
2022-07-25T22:17:52.875Z,99847.03
2022-07-25T22:20:23.199Z,99851.91
2022-07-25T22:22:53.235Z,99868.97
2022-07-25T22:25:24.429Z,99871.94
2022-07-25T22:27:55.371Z,99876.81
2022-07-25T22:30:25.579Z,99862.22
2022-07-25T22:32:54.952Z,99862.22
2022-07-25T22:35:24.962Z,99862.19
2022-07-25T22:37:55.533Z,99866.25
2022-07-25T22:40:25.647Z,99878.69
2022-07-25T22:42:56.587Z,99886.81
2022-07-25T22:45:26.847Z,99882.75
2022-07-25T22:47:57.698Z,99880.03
2022-07-25T22:50:29.131Z,99884.09
2022-07-25T22:53:00.176Z,99877.03
2022-07-25T22:55:30.387Z,99886.72
2022-07-25T22:58:01.509Z,99887.53
2022-07-25T23:00:31.663Z,99901.03
2022-07-25T23:03:01.995Z,99901.03
2022-07-25T23:05:36.192Z,99905.38
2022-07-25T23:08:10.485Z,99896.97
2022-07-25T23:10:41.443Z,99894.25
2022-07-25T23:13:11.934Z,99900.44
2022-07-25T23:15:50.418Z,99906.91
2022-07-25T23:18:22.052Z,99901.47
2022-07-25T23:20:52.325Z,99908.50
2022-07-25T23:23:22.283Z,99906.84
2022-07-25T23:25:52.385Z,99915.75
2022-07-25T23:28:22.557Z,99910.06
2022-07-25T23:30:52.651Z,99920.34
2022-07-25T23:33:25.623Z,99918.16
2022-07-25T23:35:58.534Z,99924.34
2022-07-25T23:38:28.910Z,99926.78
2022-07-25T23:40:59.485Z,99938.69
2022-07-25T23:43:40.186Z,99946.78
2022-07-25T23:46:22.471Z,99952.72
2022-07-25T23:48:59.290Z,99961.13
2022-07-25T23:51:29.701Z,99961.91
2022-07-25T23:53:59.960Z,99952.41
2022-07-25T23:56:30.507Z,99947.75
2022-07-25T23:59:00.557Z,99944.22
